Time;durP1;ratioP1;P1;durP2;ratioP2;P2;SDS_P1;SDS_P2;PMS_P1;PMS_P2;Temp;Humidity;BMP_temperature;BMP_pressure;BME280_temperature;BME280_humidity;BME280_pressure;Samples;Min_cycle;Max_cycle;Signal;HPM_P1;HPM_P2
2021/01/17 00:00:57;;;;;;;20.35;9.63;;;;;;;;;;1710994;84;21293;-82
2021/01/17 00:03:23;;;;;;;23.98;9.33;;;;;;;;;;1724308;82;21614;-82
2021/01/17 00:05:51;;;;;;;27.32;10.35;;;;;;;;;;1724322;83;21139;-84
2021/01/17 00:08:18;;;;;;;23.10;9.73;;;;;;;;;;1746807;82;21532;-84
2021/01/17 00:10:44;;;;;;;20.85;9.73;;;;;;;;;;1754176;81;21159;-83
2021/01/17 00:13:13;;;;;;;22.25;9.85;;;;;;;;;;1754376;81;21579;-83
2021/01/17 00:15:38;;;;;;;23.05;9.38;;;;;;;;;;1715568;84;21289;-84
2021/01/17 00:18:04;;;;;;;25.02;9.70;;;;;;;;;;1715715;84;21762;-83
2021/01/17 00:20:30;;;;;;;16.82;8.70;;;;;;;;;;1722051;83;21167;-84
2021/01/17 00:23:04;;;;;;;20.00;10.40;;;;;;;;;;1725781;83;21175;-83
2021/01/17 00:25:30;;;;;;;21.50;10.53;;;;;;;;;;1726169;83;21150;-83
2021/01/17 00:27:56;;;;;;;23.65;10.78;;;;;;;;;;1725806;83;21595;-83
2021/01/17 00:30:23;;;;;;;23.15;10.48;;;;;;;;;;1725916;83;21157;-83
2021/01/17 00:32:49;;;;;;;27.42;11.12;;;;;;;;;;1725736;83;21135;-85
2021/01/17 00:35:16;;;;;;;20.97;8.28;;;;;;;;;;1720435;83;21299;-85
2021/01/17 00:37:42;;;;;;;19.40;8.33;;;;;;;;;;1667307;86;21188;-84
2021/01/17 00:40:08;;;;;;;28.57;11.18;;;;;;;;;;1668407;84;21158;-84
2021/01/17 00:42:34;;;;;;;22.05;9.75;;;;;;;;;;1691895;85;21204;-84
2021/01/17 00:45:01;;;;;;;22.25;10.40;;;;;;;;;;1691884;85;21643;-85
2021/01/17 00:47:27;;;;;;;23.25;9.80;;;;;;;;;;1696977;84;21182;-84
2021/01/17 00:49:53;;;;;;;28.75;9.85;;;;;;;;;;1691660;85;21627;-83
2021/01/17 00:52:21;;;;;;;29.48;10.65;;;;;;;;;;1685291;85;21163;-85
2021/01/17 00:54:47;;;;;;;25.88;9.90;;;;;;;;;;1752233;82;21591;-85
2021/01/17 00:57:15;;;;;;;11.22;5.50;;;;;;;;;;1754538;82;21120;-84
2021/01/17 00:59:41;;;;;;;18.15;7.53;;;;;;;;;;1725097;83;21183;-85
2021/01/17 01:02:07;;;;;;;18.62;8.63;;;;;;;;;;1725721;83;21135;-84
2021/01/17 01:04:34;;;;;;;24.77;9.80;;;;;;;;;;1725779;83;21163;-85
2021/01/17 01:07:00;;;;;;;19.23;8.48;;;;;;;;;;1725779;83;21720;-85
2021/01/17 01:09:26;;;;;;;21.02;7.62;;;;;;;;;;1725803;83;21170;-84
2021/01/17 01:11:53;;;;;;;22.42;9.35;;;;;;;;;;1725765;83;21293;-84
2021/01/17 01:14:19;;;;;;;25.97;10.05;;;;;;;;;;1708312;83;21154;-84
2021/01/17 01:16:51;;;;;;;30.43;10.10;;;;;;;;;;1667368;85;21182;-84
2021/01/17 01:19:17;;;;;;;19.60;9.38;;;;;;;;;;1666975;86;21178;-84
2021/01/17 01:21:43;;;;;;;18.50;8.25;;;;;;;;;;1664784;86;21182;-82
2021/01/17 01:24:10;;;;;;;20.35;9.50;;;;;;;;;;1710634;84;21133;-83
2021/01/17 01:26:37;;;;;;;22.02;9.98;;;;;;;;;;1710704;84;21192;-82
2021/01/17 01:29:03;;;;;;;23.52;9.85;;;;;;;;;;1664696;86;21179;-82
2021/01/17 01:31:29;;;;;;;15.48;8.73;;;;;;;;;;1710717;84;21176;-81
2021/01/17 01:33:55;;;;;;;26.37;10.53;;;;;;;;;;1710699;84;21176;-83
2021/01/17 01:36:22;;;;;;;18.27;8.05;;;;;;;;;;1710679;83;21133;-83
2021/01/17 01:38:48;;;;;;;26.75;9.95;;;;;;;;;;1664633;86;21258;-83
2021/01/17 01:41:15;;;;;;;25.00;9.43;;;;;;;;;;1711423;82;21580;-83
2021/01/17 01:43:41;;;;;;;25.55;10.45;;;;;;;;;;1710734;83;21192;-84
2021/01/17 01:46:07;;;;;;;22.73;9.10;;;;;;;;;;1710835;84;21164;-84
2021/01/17 01:48:33;;;;;;;21.35;9.23;;;;;;;;;;1710818;83;21541;-85
2021/01/17 01:51:00;;;;;;;19.23;8.28;;;;;;;;;;1691065;84;21156;-83
2021/01/17 01:53:26;;;;;;;20.05;8.63;;;;;;;;;;1712782;82;21554;-83
2021/01/17 01:55:52;;;;;;;22.10;8.75;;;;;;;;;;1710849;84;21139;-82
2021/01/17 01:58:18;;;;;;;22.42;9.63;;;;;;;;;;1710788;83;21589;-82
2021/01/17 02:00:45;;;;;;;24.32;8.80;;;;;;;;;;1729415;82;21123;-82
2021/01/17 02:03:11;;;;;;;21.85;9.75;;;;;;;;;;1682790;84;21128;-83
2021/01/17 02:05:37;;;;;;;26.07;10.05;;;;;;;;;;1705158;84;21155;-83
2021/01/17 02:08:08;;;;;;;24.85;8.20;;;;;;;;;;1686143;84;21131;-82
2021/01/17 02:10:34;;;;;;;22.40;8.78;;;;;;;;;;1712890;82;21156;-83
2021/01/17 02:13:02;;;;;;;23.75;10.08;;;;;;;;;;1715201;82;21168;-82
2021/01/17 02:15:32;;;;;;;21.42;9.38;;;;;;;;;;1715090;82;21144;-80
2021/01/17 02:18:03;;;;;;;17.90;8.80;;;;;;;;;;1710973;83;21172;-81
2021/01/17 02:20:29;;;;;;;27.52;10.53;;;;;;;;;;1710625;83;21175;-80
2021/01/17 02:22:58;;;;;;;23.05;10.20;;;;;;;;;;1710744;83;21132;-81
2021/01/17 02:25:25;;;;;;;23.95;9.45;;;;;;;;;;1710403;84;21129;-81
2021/01/17 02:27:51;;;;;;;20.72;8.73;;;;;;;;;;1710805;83;21149;-83
2021/01/17 02:30:18;;;;;;;20.85;8.25;;;;;;;;;;1710710;83;21603;-81
2021/01/17 02:32:46;;;;;;;19.45;8.18;;;;;;;;;;1710777;84;21624;-83
2021/01/17 02:35:12;;;;;;;22.15;8.48;;;;;;;;;;1710620;83;21550;-83
2021/01/17 02:37:40;;;;;;;22.77;9.18;;;;;;;;;;1664847;86;21615;-83
2021/01/17 02:40:07;;;;;;;28.23;9.20;;;;;;;;;;1710720;83;21160;-84
2021/01/17 02:42:33;;;;;;;22.93;8.68;;;;;;;;;;1711410;82;21155;-83
2021/01/17 02:45:00;;;;;;;24.90;10.10;;;;;;;;;;1710812;84;21219;-82
2021/01/17 02:47:27;;;;;;;19.77;8.95;;;;;;;;;;1710833;84;21595;-82
2021/01/17 02:49:53;;;;;;;19.27;7.50;;;;;;;;;;1710947;84;21276;-82
2021/01/17 02:52:21;;;;;;;21.68;9.33;;;;;;;;;;1710796;84;21525;-82
2021/01/17 02:54:47;;;;;;;21.45;8.75;;;;;;;;;;1718671;82;21536;-83
2021/01/17 02:57:13;;;;;;;22.60;9.88;;;;;;;;;;1705076;84;21178;-82
2021/01/17 02:59:44;;;;;;;21.70;9.18;;;;;;;;;;1704964;84;21195;-80
2021/01/17 03:02:10;;;;;;;22.07;10.13;;;;;;;;;;1704572;84;21633;-80
2021/01/17 03:04:38;;;;;;;26.25;9.30;;;;;;;;;;1703818;84;21160;-81
2021/01/17 03:07:05;;;;;;;22.85;8.93;;;;;;;;;;1652605;87;21198;-81
2021/01/17 03:09:31;;;;;;;21.07;9.38;;;;;;;;;;1710793;84;21187;-80
2021/01/17 03:12:01;;;;;;;21.33;9.48;;;;;;;;;;1717591;82;21171;-82
2021/01/17 03:14:28;;;;;;;19.27;8.95;;;;;;;;;;1740244;82;21160;-83
2021/01/17 03:16:54;;;;;;;26.55;9.50;;;;;;;;;;1740105;82;21695;-81
2021/01/17 03:19:20;;;;;;;27.60;10.75;;;;;;;;;;1705021;84;21175;-84
2021/01/17 03:21:46;;;;;;;30.48;9.50;;;;;;;;;;1697224;83;21163;-84
2021/01/17 03:24:13;;;;;;;18.32;8.63;;;;;;;;;;1710809;84;21136;-83
2021/01/17 03:26:39;;;;;;;21.95;8.95;;;;;;;;;;1710757;84;21160;-85
2021/01/17 03:29:05;;;;;;;25.15;9.08;;;;;;;;;;1710752;84;21608;-81
2021/01/17 03:31:31;;;;;;;22.85;9.65;;;;;;;;;;1710832;84;21202;-81
2021/01/17 03:33:57;;;;;;;20.10;9.60;;;;;;;;;;1710860;84;21191;-84
2021/01/17 03:36:23;;;;;;;29.25;10.98;;;;;;;;;;1710745;84;21580;-86
2021/01/17 03:38:49;;;;;;;25.05;8.93;;;;;;;;;;1710820;84;21194;-86
2021/01/17 03:41:16;;;;;;;20.37;8.80;;;;;;;;;;1710694;84;21564;-83
2021/01/17 03:43:42;;;;;;;19.87;8.55;;;;;;;;;;1710770;82;21195;-81
2021/01/17 03:46:08;;;;;;;25.62;10.03;;;;;;;;;;1710767;83;21545;-81
2021/01/17 03:48:34;;;;;;;20.60;8.95;;;;;;;;;;1710855;83;21168;-84
2021/01/17 03:51:00;;;;;;;20.32;9.15;;;;;;;;;;1729208;82;21552;-83
2021/01/17 03:53:26;;;;;;;23.30;9.90;;;;;;;;;;1720069;82;21163;-82
2021/01/17 03:55:52;;;;;;;25.20;9.73;;;;;;;;;;1664843;86;21224;-81
2021/01/17 03:58:18;;;;;;;26.80;9.38;;;;;;;;;;1710725;83;21583;-81
2021/01/17 04:00:44;;;;;;;21.05;9.45;;;;;;;;;;1664486;86;21598;-80
2021/01/17 04:03:11;;;;;;;23.90;10.35;;;;;;;;;;1680711;85;21136;-81
2021/01/17 04:05:37;;;;;;;27.55;8.78;;;;;;;;;;1722062;82;21544;-82
2021/01/17 04:08:03;;;;;;;21.70;10.93;;;;;;;;;;1702860;84;21567;-82
2021/01/17 04:10:29;;;;;;;20.55;8.95;;;;;;;;;;1704950;84;21186;-81
2021/01/17 04:12:55;;;;;;;25.05;8.25;;;;;;;;;;1704928;84;21167;-82
2021/01/17 04:15:22;;;;;;;23.52;9.13;;;;;;;;;;1705190;84;21590;-82
2021/01/17 04:17:48;;;;;;;18.60;9.33;;;;;;;;;;1704870;84;21576;-82
2021/01/17 04:20:14;;;;;;;17.65;9.13;;;;;;;;;;1707061;83;21194;-79
2021/01/17 04:22:40;;;;;;;20.35;7.58;;;;;;;;;;1685126;84;21150;-80
2021/01/17 04:25:07;;;;;;;24.50;8.78;;;;;;;;;;1692785;84;21689;-82
2021/01/17 04:27:33;;;;;;;23.12;9.50;;;;;;;;;;1683166;84;21122;-82
2021/01/17 04:29:59;;;;;;;20.68;8.13;;;;;;;;;;1700672;83;21256;-82
2021/01/17 04:32:25;;;;;;;23.10;10.18;;;;;;;;;;1698980;83;21161;-81
2021/01/17 04:34:51;;;;;;;21.20;7.95;;;;;;;;;;1721363;83;21122;-82
2021/01/17 04:37:22;;;;;;;21.10;9.83;;;;;;;;;;1698430;83;21178;-84
2021/01/17 04:39:49;;;;;;;21.97;9.98;;;;;;;;;;1720772;83;21716;-84
2021/01/17 04:42:18;;;;;;;18.40;8.63;;;;;;;;;;1725705;83;21175;-84
2021/01/17 04:44:47;;;;;;;25.65;9.48;;;;;;;;;;1725792;83;21606;-82
2021/01/17 04:47:13;;;;;;;22.32;9.65;;;;;;;;;;1708725;83;21292;-81
2021/01/17 04:49:39;;;;;;;28.10;9.98;;;;;;;;;;1688375;84;21174;-80
2021/01/17 04:52:07;;;;;;;24.30;9.25;;;;;;;;;;1640534;86;21576;-82
2021/01/17 04:54:33;;;;;;;24.85;9.58;;;;;;;;;;1713158;84;21313;-81
2021/01/17 04:57:00;;;;;;;24.00;9.18;;;;;;;;;;1714081;84;21168;-84
2021/01/17 04:59:28;;;;;;;21.80;9.58;;;;;;;;;;1713919;84;21600;-84
2021/01/17 05:01:59;;;;;;;24.52;9.63;;;;;;;;;;1713783;84;21141;-84
2021/01/17 05:04:44;;;;;;;27.87;10.10;;;;;;;;;;1713115;84;21237;-84
2021/01/17 05:07:16;;;;;;;25.15;9.98;;;;;;;;;;1714097;84;21313;-84
2021/01/17 05:09:47;;;;;;;23.80;9.85;;;;;;;;;;1714033;84;21155;-83
2021/01/17 05:12:14;;;;;;;22.87;10.50;;;;;;;;;;1729534;82;21101;-85
2021/01/17 05:14:43;;;;;;;17.52;8.55;;;;;;;;;;1743573;82;21163;-83
2021/01/17 05:17:10;;;;;;;24.27;8.63;;;;;;;;;;1725757;83;21173;-85
2021/01/17 05:19:36;;;;;;;21.55;9.58;;;;;;;;;;1725883;83;21226;-86
2021/01/17 05:22:03;;;;;;;23.00;10.03;;;;;;;;;;1725644;82;21178;-82
2021/01/17 05:24:29;;;;;;;20.82;9.75;;;;;;;;;;1725871;83;21166;-82
2021/01/17 05:26:56;;;;;;;20.23;9.73;;;;;;;;;;1716595;83;21689;-84
2021/01/17 05:29:23;;;;;;;25.30;9.88;;;;;;;;;;1689825;84;21179;-84
2021/01/17 05:31:50;;;;;;;26.05;10.40;;;;;;;;;;1672717;84;21195;-83
2021/01/17 05:34:16;;;;;;;23.60;10.25;;;;;;;;;;1689218;84;21909;-83
2021/01/17 05:36:43;;;;;;;25.48;10.90;;;;;;;;;;1686250;85;21136;-81
2021/01/17 05:39:09;;;;;;;27.67;10.88;;;;;;;;;;1724498;83;21168;-81
2021/01/17 05:41:35;;;;;;;24.75;10.28;;;;;;;;;;1718592;83;21244;-81
2021/01/17 05:44:01;;;;;;;27.65;10.93;;;;;;;;;;1715728;83;21589;-81
2021/01/17 05:46:27;;;;;;;28.30;9.60;;;;;;;;;;1721080;83;21135;-82
2021/01/17 05:49:09;;;;;;;24.12;10.10;;;;;;;;;;1725812;83;21615;-81
2021/01/17 05:51:35;;;;;;;29.87;11.40;;;;;;;;;;1725858;82;21300;-82
2021/01/17 05:54:10;;;;;;;25.25;10.38;;;;;;;;;;1725796;83;21178;-82
2021/01/17 05:56:37;;;;;;;21.25;9.50;;;;;;;;;;1725828;83;21613;-82
2021/01/17 05:59:03;;;;;;;21.62;9.25;;;;;;;;;;1725848;83;21166;-82
2021/01/17 06:01:33;;;;;;;16.52;8.93;;;;;;;;;;1726396;83;21191;-81
2021/01/17 06:04:01;;;;;;;23.20;9.08;;;;;;;;;;1726419;83;21171;-82
2021/01/17 06:06:27;;;;;;;20.08;9.90;;;;;;;;;;1716941;83;21170;-82
2021/01/17 06:08:56;;;;;;;31.57;10.63;;;;;;;;;;1668298;86;21193;-82
2021/01/17 06:11:23;;;;;;;28.12;11.22;;;;;;;;;;1668254;86;21162;-82
2021/01/17 06:13:53;;;;;;;28.90;11.18;;;;;;;;;;1699056;83;21164;-81
2021/01/17 06:16:34;;;;;;;25.43;11.45;;;;;;;;;;1740154;82;21144;-81
2021/01/17 06:19:02;;;;;;;27.25;10.20;;;;;;;;;;1718853;82;21124;-82
2021/01/17 06:21:29;;;;;;;35.63;10.75;;;;;;;;;;1733613;82;21245;-82
2021/01/17 06:23:58;;;;;;;24.90;10.43;;;;;;;;;;1710814;82;21553;-80
2021/01/17 06:26:26;;;;;;;25.92;10.03;;;;;;;;;;1728272;82;21123;-80
2021/01/17 06:28:52;;;;;;;30.77;11.60;;;;;;;;;;1723701;83;21181;-80
2021/01/17 06:31:26;;;;;;;25.08;11.00;;;;;;;;;;1739178;82;21127;-80
2021/01/17 06:33:50;;;;;;;31.35;11.18;;;;;;;;;;1724036;83;21154;-80
2021/01/17 06:36:17;;;;;;;24.15;9.75;;;;;;;;;;1724334;83;21556;-81
2021/01/17 06:38:43;;;;;;;34.05;12.28;;;;;;;;;;1724306;83;21310;-80
2021/01/17 06:41:09;;;;;;;33.50;12.35;;;;;;;;;;1724320;83;21333;-78
2021/01/17 06:43:39;;;;;;;26.37;10.23;;;;;;;;;;1724406;83;21167;-78
2021/01/17 06:46:05;;;;;;;25.70;11.20;;;;;;;;;;1724398;83;21167;-77
2021/01/17 06:48:31;;;;;;;25.30;11.10;;;;;;;;;;1724369;83;21166;-78
2021/01/17 06:51:16;;;;;;;21.70;9.78;;;;;;;;;;1729208;82;21159;-78
2021/01/17 06:53:44;;;;;;;35.65;13.70;;;;;;;;;;1730682;82;21522;-78
2021/01/17 06:56:16;;;;;;;30.17;12.90;;;;;;;;;;1747492;82;21547;-76
2021/01/17 06:58:42;;;;;;;32.10;13.08;;;;;;;;;;1738695;82;21195;-83
2021/01/17 07:01:10;;;;;;;39.63;14.68;;;;;;;;;;1754149;82;21587;-80
2021/01/17 07:03:54;;;;;;;25.30;11.90;;;;;;;;;;1754203;82;21171;-79
2021/01/17 07:06:22;;;;;;;30.10;13.55;;;;;;;;;;1752599;82;21198;-83
2021/01/17 07:08:52;;;;;;;35.38;14.55;;;;;;;;;;1751790;82;21175;-80
2021/01/17 07:11:20;;;;;;;32.70;12.78;;;;;;;;;;1724318;83;21309;-79
2021/01/17 07:13:47;;;;;;;38.33;14.05;;;;;;;;;;1724315;82;21163;-78
2021/01/17 07:16:14;;;;;;;32.10;14.20;;;;;;;;;;1736306;82;21697;-78
2021/01/17 07:18:40;;;;;;;27.80;12.03;;;;;;;;;;1724612;82;21171;-76
2021/01/17 07:21:06;;;;;;;34.38;13.20;;;;;;;;;;1742056;82;21179;-76
2021/01/17 07:23:32;;;;;;;39.48;14.15;;;;;;;;;;1730308;82;21151;-75
2021/01/17 07:26:00;;;;;;;25.62;9.78;;;;;;;;;;1735945;82;21155;-77
2021/01/17 07:28:26;;;;;;;29.05;10.48;;;;;;;;;;1749599;82;21140;-77
2021/01/17 07:31:00;;;;;;;34.18;14.23;;;;;;;;;;1747159;82;21562;-76
2021/01/17 07:33:28;;;;;;;25.25;10.65;;;;;;;;;;1728424;82;21543;-78
2021/01/17 07:35:55;;;;;;;47.00;15.95;;;;;;;;;;1735823;82;21271;-79
2021/01/17 07:38:23;;;;;;;33.50;13.45;;;;;;;;;;1737321;80;21608;-79
2021/01/17 07:40:56;;;;;;;41.73;13.05;;;;;;;;;;1744333;80;21556;-81
2021/01/17 07:43:24;;;;;;;26.30;11.65;;;;;;;;;;1736107;82;21143;-77
2021/01/17 07:45:50;;;;;;;32.50;15.40;;;;;;;;;;1749056;82;21136;-79
2021/01/17 07:48:16;;;;;;;36.30;13.75;;;;;;;;;;1754069;82;21178;-76
2021/01/17 07:50:43;;;;;;;37.73;12.75;;;;;;;;;;1754161;82;21933;-83
2021/01/17 07:53:13;;;;;;;32.90;11.93;;;;;;;;;;1734079;80;21610;-81
2021/01/17 07:55:40;;;;;;;31.45;13.40;;;;;;;;;;1740979;82;21603;-78
2021/01/17 07:58:07;;;;;;;36.33;12.93;;;;;;;;;;1748256;82;21164;-78
2021/01/17 08:00:34;;;;;;;41.50;16.05;;;;;;;;;;1710710;82;21304;-81
2021/01/17 08:03:00;;;;;;;39.60;15.05;;;;;;;;;;1720415;80;21155;-79
2021/01/17 08:05:44;;;;;;;40.45;16.07;;;;;;;;;;1743953;80;21513;-81
2021/01/17 08:08:10;;;;;;;;;;;;;;;;;;1741688;80;21108;-79
2021/01/17 08:10:37;;;;;;;38.23;14.10;;;;;;;;;;1732903;82;20149;-81
2021/01/17 08:13:05;;;;;;;32.05;14.23;;;;;;;;;;1753873;81;21172;-80
2021/01/17 08:15:32;;;;;;;33.02;12.78;;;;;;;;;;1739219;82;21156;-79
2021/01/17 08:17:58;;;;;;;33.48;15.18;;;;;;;;;;1754105;82;21168;-79
2021/01/17 08:20:27;;;;;;;41.68;15.83;;;;;;;;;;1754093;82;21175;-80
2021/01/17 08:23:02;;;;;;;36.95;14.98;;;;;;;;;;1743099;81;21161;-78
2021/01/17 08:25:48;;;;;;;37.15;16.90;;;;;;;;;;1740146;82;21291;-80
2021/01/17 08:28:30;;;;;;;39.92;17.00;;;;;;;;;;1739187;82;21178;-79
2021/01/17 08:30:56;;;;;;;36.15;16.17;;;;;;;;;;1732022;82;21695;-78
2021/01/17 08:33:24;;;;;;;44.45;17.73;;;;;;;;;;1686238;84;21171;-79
2021/01/17 08:35:51;;;;;;;46.83;15.28;;;;;;;;;;1722988;81;21112;-79
2021/01/17 08:38:18;;;;;;;32.08;17.12;;;;;;;;;;1738511;82;21180;-78
2021/01/17 08:40:45;;;;;;;43.87;18.37;;;;;;;;;;1733264;81;21139;-78
2021/01/17 08:43:15;;;;;;;41.28;16.48;;;;;;;;;;1720361;82;21132;-79
2021/01/17 08:45:43;;;;;;;52.10;22.37;;;;;;;;;;1719308;82;21152;-78
2021/01/17 08:48:20;;;;;;;45.20;19.07;;;;;;;;;;1675692;85;21167;-80
2021/01/17 08:50:48;;;;;;;37.90;18.20;;;;;;;;;;1720972;82;21155;-79
2021/01/17 08:53:14;;;;;;;40.10;19.55;;;;;;;;;;1736549;82;21140;-79
2021/01/17 08:55:44;;;;;;;26.45;13.68;;;;;;;;;;1739079;82;21147;-79
2021/01/17 08:58:12;;;;;;;42.23;19.48;;;;;;;;;;1727113;82;21189;-79
2021/01/17 09:00:58;;;;;;;37.10;18.15;;;;;;;;;;1738989;81;21572;-79
2021/01/17 09:03:28;;;;;;;36.25;17.98;;;;;;;;;;1725566;82;21125;-79
2021/01/17 09:05:56;;;;;;;44.63;18.77;;;;;;;;;;1713277;82;21144;-82
2021/01/17 09:08:22;;;;;;;54.40;20.85;;;;;;;;;;1726958;82;21160;-80
2021/01/17 09:10:49;;;;;;;43.25;20.97;;;;;;;;;;1713032;82;21560;-80
2021/01/17 09:13:25;;;;;;;39.05;18.57;;;;;;;;;;1731254;82;21148;-81
2021/01/17 09:16:01;;;;;;;36.40;16.45;;;;;;;;;;1720472;82;21152;-79
2021/01/17 09:18:27;;;;;;;37.35;16.23;;;;;;;;;;1720578;82;21188;-83
2021/01/17 09:20:54;;;;;;;32.75;15.03;;;;;;;;;;1739673;82;21302;-81
2021/01/17 09:23:21;;;;;;;42.40;15.40;;;;;;;;;;1736068;81;21623;-85
2021/01/17 09:25:47;;;;;;;38.00;15.08;;;;;;;;;;1739595;82;21301;-85
2021/01/17 09:28:14;;;;;;;30.97;13.30;;;;;;;;;;1733381;82;21132;-84
2021/01/17 09:30:42;;;;;;;32.05;15.48;;;;;;;;;;1736631;81;21167;-83
2021/01/17 09:33:08;;;;;;;38.30;17.90;;;;;;;;;;1732075;81;21124;-85
2021/01/17 09:35:34;;;;;;;36.35;16.42;;;;;;;;;;1724366;82;21556;-83
2021/01/17 09:38:00;;;;;;;32.83;15.65;;;;;;;;;;1723351;82;21176;-83
2021/01/17 09:40:27;;;;;;;39.48;17.77;;;;;;;;;;1724999;82;21521;-87
2021/01/17 09:42:53;;;;;;;32.75;16.05;;;;;;;;;;1688922;84;21174;-85
2021/01/17 09:45:19;;;;;;;35.40;14.93;;;;;;;;;;1733424;81;21144;-81
2021/01/17 09:47:46;;;;;;;27.37;12.03;;;;;;;;;;1721984;81;21112;-85
2021/01/17 09:50:12;;;;;;;27.77;13.48;;;;;;;;;;1731301;81;21551;-81
2021/01/17 09:52:40;;;;;;;29.27;13.13;;;;;;;;;;1717497;82;21164;-87
2021/01/17 09:55:08;;;;;;;34.53;15.85;;;;;;;;;;1734385;82;21152;-87
2021/01/17 09:57:38;;;;;;;31.80;14.75;;;;;;;;;;1727233;82;21156;-84
2021/01/17 10:00:06;;;;;;;36.48;16.85;;;;;;;;;;1723576;82;21214;-81
2021/01/17 10:02:32;;;;;;;37.35;17.37;;;;;;;;;;1724041;82;21151;-85
2021/01/17 10:04:58;;;;;;;32.98;17.65;;;;;;;;;;1724892;82;21152;-83
2021/01/17 10:07:25;;;;;;;36.05;18.35;;;;;;;;;;1726238;82;21135;-84
2021/01/17 10:09:51;;;;;;;36.83;18.10;;;;;;;;;;1727915;82;21144;-85
2021/01/17 10:12:18;;;;;;;34.80;18.55;;;;;;;;;;1721097;82;21552;-84
2021/01/17 10:14:44;;;;;;;31.48;17.00;;;;;;;;;;1732125;82;21540;-84
2021/01/17 10:17:10;;;;;;;38.15;20.00;;;;;;;;;;1701495;84;21163;-84
2021/01/17 10:19:40;;;;;;;35.38;19.15;;;;;;;;;;1689816;84;21596;-84
2021/01/17 10:22:11;;;;;;;37.58;19.12;;;;;;;;;;1677461;84;21521;-79
2021/01/17 10:24:37;;;;;;;35.03;19.77;;;;;;;;;;1725194;82;21172;-81
2021/01/17 10:27:03;;;;;;;37.45;21.33;;;;;;;;;;1696968;84;21200;-81
2021/01/17 10:29:31;;;;;;;45.33;22.42;;;;;;;;;;1704794;84;21195;-82
2021/01/17 10:31:58;;;;;;;39.40;21.75;;;;;;;;;;1675873;84;21154;-84
2021/01/17 10:34:26;;;;;;;41.40;23.55;;;;;;;;;;1711149;82;21152;-83
2021/01/17 10:36:56;;;;;;;46.25;25.72;;;;;;;;;;1739045;82;21290;-86
2021/01/17 10:39:23;;;;;;;42.62;24.60;;;;;;;;;;1740153;82;21298;-85
2021/01/17 10:41:49;;;;;;;42.83;23.38;;;;;;;;;;1712822;82;21185;-84
2021/01/17 10:44:17;;;;;;;38.67;23.32;;;;;;;;;;1710543;83;21171;-80
2021/01/17 10:46:44;;;;;;;41.95;24.30;;;;;;;;;;1710920;84;21192;-87
2021/01/17 10:49:12;;;;;;;41.50;24.90;;;;;;;;;;1711254;82;21172;-84
2021/01/17 10:51:40;;;;;;;47.33;25.62;;;;;;;;;;1712620;82;21156;-84
2021/01/17 10:54:06;;;;;;;44.83;26.68;;;;;;;;;;1710608;83;21152;-85
2021/01/17 10:56:32;;;;;;;43.50;26.82;;;;;;;;;;1710652;83;21192;-85
2021/01/17 10:58:58;;;;;;;44.27;26.97;;;;;;;;;;1717252;82;21498;-86
2021/01/17 11:01:32;;;;;;;42.67;25.15;;;;;;;;;;1692376;84;21183;-83
2021/01/17 11:04:01;;;;;;;41.02;25.80;;;;;;;;;;1674261;85;21576;-83
2021/01/17 11:06:28;;;;;;;39.75;23.65;;;;;;;;;;1688538;84;21179;-81
2021/01/17 11:08:54;;;;;;;40.70;23.75;;;;;;;;;;1698438;84;21152;-83
2021/01/17 11:11:25;;;;;;;40.90;23.85;;;;;;;;;;1734651;82;21600;-79
2021/01/17 11:13:56;;;;;;;39.38;24.27;;;;;;;;;;1730897;82;21145;-79
2021/01/17 11:16:33;;;;;;;39.70;25.20;;;;;;;;;;1713106;81;21155;-79
2021/01/17 11:18:59;;;;;;;38.65;23.90;;;;;;;;;;1729383;82;21115;-86
2021/01/17 11:21:25;;;;;;;40.10;23.92;;;;;;;;;;1725262;82;21205;-79
2021/01/17 11:23:52;;;;;;;38.63;22.80;;;;;;;;;;1734467;82;21148;-82
2021/01/17 11:26:19;;;;;;;36.30;23.05;;;;;;;;;;1733984;82;21143;-87
2021/01/17 11:29:04;;;;;;;37.15;24.60;;;;;;;;;;1734410;81;21104;-87
2021/01/17 11:31:30;;;;;;;41.42;26.95;;;;;;;;;;1734771;82;21571;-85
2021/01/17 11:33:56;;;;;;;45.38;29.32;;;;;;;;;;1737575;82;21163;-79
2021/01/17 11:36:24;;;;;;;43.90;28.15;;;;;;;;;;1738488;82;21171;-79
2021/01/17 11:38:53;;;;;;;44.00;28.23;;;;;;;;;;1737034;82;21156;-85
2021/01/17 11:41:19;;;;;;;43.60;28.50;;;;;;;;;;1699432;83;21183;-83
2021/01/17 11:43:45;;;;;;;41.05;26.33;;;;;;;;;;1672135;85;21135;-87
2021/01/17 11:46:12;;;;;;;37.93;23.67;;;;;;;;;;1734049;82;21099;-86
2021/01/17 11:48:38;;;;;;;38.30;24.80;;;;;;;;;;1741829;82;21144;-81
2021/01/17 11:51:04;;;;;;;40.70;24.87;;;;;;;;;;1742931;82;21169;-81
2021/01/17 11:53:31;;;;;;;37.67;25.80;;;;;;;;;;1739421;82;21163;-86
2021/01/17 11:55:57;;;;;;;37.58;24.87;;;;;;;;;;1713960;82;21166;-86
2021/01/17 11:58:26;;;;;;;41.45;25.60;;;;;;;;;;1744168;80;21134;-82
2021/01/17 12:00:52;;;;;;;38.48;23.98;;;;;;;;;;1745755;81;21104;-86
2021/01/17 12:03:23;;;;;;;35.75;22.27;;;;;;;;;;1729885;82;21542;-86
2021/01/17 12:06:03;;;;;;;37.45;23.65;;;;;;;;;;1740161;82;21140;-85
2021/01/17 12:08:50;;;;;;;33.02;21.55;;;;;;;;;;1740673;82;21154;-82
2021/01/17 12:11:35;;;;;;;32.23;20.40;;;;;;;;;;1736175;82;21150;-82
2021/01/17 12:14:02;;;;;;;31.48;20.40;;;;;;;;;;1735238;82;21125;-81
2021/01/17 12:16:34;;;;;;;32.83;21.50;;;;;;;;;;1733296;82;21112;-85
2021/01/17 12:19:00;;;;;;;33.20;20.80;;;;;;;;;;1732854;82;21150;-82
2021/01/17 12:21:27;;;;;;;35.30;23.20;;;;;;;;;;1739962;82;21151;-84
2021/01/17 12:23:54;;;;;;;35.00;21.62;;;;;;;;;;1737468;81;21566;-81
2021/01/17 12:26:20;;;;;;;35.95;21.35;;;;;;;;;;1701830;84;21721;-81
2021/01/17 12:28:51;;;;;;;34.55;21.20;;;;;;;;;;1741170;82;21169;-80
2021/01/17 12:31:14;;;;;;;37.83;22.67;;;;;;;;;;1751516;82;21136;-81
2021/01/17 12:33:40;;;;;;;42.70;22.65;;;;;;;;;;1754152;82;21139;-86
2021/01/17 12:36:07;;;;;;;37.53;22.55;;;;;;;;;;1754183;82;21158;-84
2021/01/17 12:38:33;;;;;;;40.58;22.48;;;;;;;;;;1754042;81;21156;-86
2021/01/17 12:41:00;;;;;;;40.45;22.27;;;;;;;;;;1747493;81;21175;-80
2021/01/17 12:43:26;;;;;;;40.43;19.65;;;;;;;;;;1724160;83;21155;-81
2021/01/17 12:45:52;;;;;;;40.88;20.23;;;;;;;;;;1724377;83;21174;-85
2021/01/17 12:48:18;;;;;;;38.05;19.50;;;;;;;;;;1724386;83;21162;-85
2021/01/17 12:50:45;;;;;;;29.92;14.33;;;;;;;;;;1724374;83;21539;-84
2021/01/17 12:53:15;;;;;;;39.05;19.15;;;;;;;;;;1730724;82;21128;-85
2021/01/17 12:55:45;;;;;;;33.15;15.90;;;;;;;;;;1741129;82;21144;-85
2021/01/17 12:58:11;;;;;;;29.00;15.98;;;;;;;;;;1724182;83;21340;-84
2021/01/17 13:00:37;;;;;;;35.60;16.65;;;;;;;;;;1725048;82;21201;-80
2021/01/17 13:03:05;;;;;;;36.60;17.30;;;;;;;;;;1724281;83;21164;-84
2021/01/17 13:05:31;;;;;;;32.88;15.75;;;;;;;;;;1724451;83;21159;-81
2021/01/17 13:07:57;;;;;;;33.67;16.07;;;;;;;;;;1730260;82;21135;-83
2021/01/17 13:10:24;;;;;;;33.85;16.48;;;;;;;;;;1749670;82;21128;-84
2021/01/17 13:12:50;;;;;;;32.23;14.70;;;;;;;;;;1746755;82;21143;-85
2021/01/17 13:15:18;;;;;;;33.70;14.73;;;;;;;;;;1724510;82;21151;-85
2021/01/17 13:17:44;;;;;;;31.62;14.93;;;;;;;;;;1747718;82;21163;-81
2021/01/17 13:20:13;;;;;;;39.35;17.23;;;;;;;;;;1751506;82;21155;-84
2021/01/17 13:25:06;;;;;;;30.90;15.23;;;;;;;;;;1824304;77;23088;-81
2021/01/17 13:27:33;;;;;;;38.00;15.98;;;;;;;;;;1795523;80;21133;-84
2021/01/17 13:29:59;;;;;;;27.62;12.55;;;;;;;;;;1815882;77;21139;-81
2021/01/17 13:32:28;;;;;;;35.65;15.32;;;;;;;;;;1815527;77;21134;-85
2021/01/17 13:34:54;;;;;;;38.80;16.02;;;;;;;;;;1843268;77;21212;-81
2021/01/17 13:37:25;;;;;;;37.65;17.02;;;;;;;;;;1856300;77;21277;-86
2021/01/17 13:40:07;;;;;;;43.10;17.15;;;;;;;;;;1803646;77;21095;-80
2021/01/17 13:42:45;;;;;;;38.67;17.87;;;;;;;;;;1804951;77;21160;-85
2021/01/17 13:45:00;;;;;;;44.45;17.85;;;;;;;;;;1823827;77;21139;-85
2021/01/17 13:47:27;;;;;;;38.80;17.00;;;;;;;;;;1807800;77;21151;-81
2021/01/17 13:50:00;;;;;;;34.63;17.40;;;;;;;;;;1808920;77;21296;-84
2021/01/17 13:52:26;;;;;;;36.48;16.17;;;;;;;;;;1827653;77;21284;-81
2021/01/17 13:54:53;;;;;;;44.48;18.62;;;;;;;;;;1862200;77;21120;-80
2021/01/17 13:57:19;;;;;;;38.45;18.35;;;;;;;;;;1832035;77;21126;-84
2021/01/17 13:59:45;;;;;;;37.83;16.77;;;;;;;;;;1821424;77;21166;-84
2021/01/17 14:02:14;;;;;;;41.05;17.80;;;;;;;;;;1844136;77;21202;-83
2021/01/17 14:04:40;;;;;;;42.70;17.35;;;;;;;;;;1811389;78;21135;-84
2021/01/17 14:07:08;;;;;;;44.40;18.15;;;;;;;;;;1813107;78;21179;-84
2021/01/17 14:09:34;;;;;;;38.88;15.80;;;;;;;;;;1805288;78;21172;-80
2021/01/17 14:12:09;;;;;;;35.88;17.82;;;;;;;;;;1840562;77;21590;-84
2021/01/17 14:14:37;;;;;;;45.08;18.55;;;;;;;;;;1796017;77;21160;-84
2021/01/17 14:17:05;;;;;;;41.60;16.97;;;;;;;;;;1817623;77;21200;-80
2021/01/17 14:19:32;;;;;;;38.78;16.37;;;;;;;;;;1822222;77;21290;-84
2021/01/17 14:21:59;;;;;;;40.00;17.15;;;;;;;;;;1810186;78;21105;-84
2021/01/17 14:24:26;;;;;;;38.28;17.95;;;;;;;;;;1795839;80;21235;-84
2021/01/17 14:26:53;;;;;;;39.30;16.70;;;;;;;;;;1796110;80;21595;-81